Time;durP1;ratioP1;P1;durP2;ratioP2;P2;SDS_P1;SDS_P2;PMS_P1;PMS_P2;Temp;Humidity;BMP_temperature;BMP_pressure;BME280_temperature;BME280_humidity;BME280_pressure;Samples;Min_cycle;Max_cycle;Signal;HPM_P1;HPM_P2
2023/07/08 00:01:14;;;;;;;9.45;6.32;;;;;;;;;;5070671;28;20200;-64
2023/07/08 00:03:41;;;;;;;8.60;5.95;;;;;;;;;;5085814;28;20270;-67
2023/07/08 00:06:29;;;;;;;8.50;5.88;;;;;;;;;;5084409;28;20252;-67
2023/07/08 00:08:56;;;;;;;6.75;5.55;;;;;;;;;;5081008;28;20209;-64
2023/07/08 00:11:24;;;;;;;7.05;5.80;;;;;;;;;;5069451;28;20213;-67
2023/07/08 00:13:51;;;;;;;7.03;5.50;;;;;;;;;;5082638;28;20278;-69
2023/07/08 00:16:19;;;;;;;7.50;5.72;;;;;;;;;;5077222;28;20232;-65
2023/07/08 00:18:48;;;;;;;7.93;6.20;;;;;;;;;;5074311;28;20240;-66
2023/07/08 00:21:16;;;;;;;8.25;6.28;;;;;;;;;;5078966;28;20584;-65
2023/07/08 00:23:48;;;;;;;8.32;5.80;;;;;;;;;;5073883;28;20224;-64
2023/07/08 00:26:25;;;;;;;8.10;6.22;;;;;;;;;;5058954;28;20220;-66
2023/07/08 00:28:53;;;;;;;5.97;5.25;;;;;;;;;;5078175;28;20258;-65
2023/07/08 00:31:23;;;;;;;8.63;5.80;;;;;;;;;;5076703;28;20212;-66
2023/07/08 00:33:51;;;;;;;7.55;5.93;;;;;;;;;;5083955;28;20207;-65
2023/07/08 00:36:18;;;;;;;7.75;6.10;;;;;;;;;;5075901;28;20225;-65
2023/07/08 00:38:47;;;;;;;11.75;6.05;;;;;;;;;;5078975;28;20303;-64
2023/07/08 00:41:14;;;;;;;10.48;5.90;;;;;;;;;;5072717;28;20205;-67
2023/07/08 00:43:44;;;;;;;8.18;6.05;;;;;;;;;;5082423;28;20197;-64
2023/07/08 00:46:30;;;;;;;8.27;5.53;;;;;;;;;;5090151;28;20224;-69
2023/07/08 00:49:00;;;;;;;7.15;5.70;;;;;;;;;;5088330;28;20213;-72
2023/07/08 00:51:27;;;;;;;6.50;5.65;;;;;;;;;;5077003;28;20213;-65
2023/07/08 00:53:54;;;;;;;7.47;5.97;;;;;;;;;;5073605;28;20205;-63
2023/07/08 00:56:26;;;;;;;7.75;5.78;;;;;;;;;;5075532;28;20217;-66
2023/07/08 00:58:53;;;;;;;7.68;6.00;;;;;;;;;;5075293;28;20221;-67
2023/07/08 01:01:21;;;;;;;6.75;5.75;;;;;;;;;;5077400;28;20205;-64
2023/07/08 01:03:51;;;;;;;7.65;5.90;;;;;;;;;;5081281;28;20216;-66
2023/07/08 01:06:20;;;;;;;7.45;6.40;;;;;;;;;;5083084;28;20573;-72
2023/07/08 01:08:50;;;;;;;7.80;6.05;;;;;;;;;;5078143;28;20212;-64
2023/07/08 01:11:17;;;;;;;6.78;5.97;;;;;;;;;;5084121;28;20639;-65
2023/07/08 01:13:45;;;;;;;7.18;5.80;;;;;;;;;;5082714;28;20201;-66
2023/07/08 01:16:13;;;;;;;8.93;6.13;;;;;;;;;;5084045;28;20239;-68
2023/07/08 01:18:41;;;;;;;8.45;6.47;;;;;;;;;;5087056;28;20227;-66
2023/07/08 01:21:32;;;;;;;10.60;6.38;;;;;;;;;;5072090;28;20236;-67
2023/07/08 01:24:00;;;;;;;6.72;5.55;;;;;;;;;;5078803;28;20208;-65
2023/07/08 01:26:29;;;;;;;8.52;6.03;;;;;;;;;;5087070;28;20229;-64
2023/07/08 01:28:56;;;;;;;7.88;6.47;;;;;;;;;;5089091;28;20250;-64
2023/07/08 01:31:24;;;;;;;9.45;6.07;;;;;;;;;;5081750;28;20250;-64
2023/07/08 01:33:53;;;;;;;7.07;6.38;;;;;;;;;;5078761;28;20228;-66
2023/07/08 01:36:20;;;;;;;9.10;6.30;;;;;;;;;;5078505;28;20270;-72
2023/07/08 01:38:48;;;;;;;9.27;6.72;;;;;;;;;;5081514;28;20701;-64
2023/07/08 01:41:16;;;;;;;7.93;6.07;;;;;;;;;;5087113;28;20209;-65
2023/07/08 01:43:44;;;;;;;8.05;5.40;;;;;;;;;;5084703;28;20201;-66
2023/07/08 01:46:14;;;;;;;8.38;6.53;;;;;;;;;;5087473;28;20638;-69
2023/07/08 01:48:45;;;;;;;8.75;6.40;;;;;;;;;;5086711;28;20205;-63
2023/07/08 01:51:13;;;;;;;7.57;6.07;;;;;;;;;;5086238;28;20205;-66
2023/07/08 01:53:41;;;;;;;8.48;6.57;;;;;;;;;;5084657;28;20254;-68
2023/07/08 01:56:10;;;;;;;8.63;6.15;;;;;;;;;;5058402;28;20361;-68
2023/07/08 01:58:37;;;;;;;7.78;6.20;;;;;;;;;;5078630;28;20229;-71
2023/07/08 02:01:04;;;;;;;9.02;6.80;;;;;;;;;;5080234;28;20197;-65
2023/07/08 02:03:32;;;;;;;7.93;6.30;;;;;;;;;;5071850;28;20204;-64
2023/07/08 02:05:59;;;;;;;8.95;6.07;;;;;;;;;;5084986;28;20296;-66
2023/07/08 02:08:27;;;;;;;9.10;6.47;;;;;;;;;;5067032;28;20257;-64
2023/07/08 02:10:58;;;;;;;8.68;6.22;;;;;;;;;;5072015;28;20200;-66
2023/07/08 02:13:26;;;;;;;7.70;6.45;;;;;;;;;;5090337;28;20213;-65
2023/07/08 02:15:53;;;;;;;9.88;6.00;;;;;;;;;;5086848;28;20282;-65
2023/07/08 02:18:23;;;;;;;8.68;6.43;;;;;;;;;;5087813;28;20256;-65
2023/07/08 02:20:50;;;;;;;9.63;6.07;;;;;;;;;;5084936;28;20212;-65
2023/07/08 02:23:18;;;;;;;9.02;5.93;;;;;;;;;;5076514;28;20650;-64
2023/07/08 02:25:52;;;;;;;9.07;6.80;;;;;;;;;;5086873;28;20222;-65
2023/07/08 02:28:20;;;;;;;8.60;6.47;;;;;;;;;;5061533;28;20218;-64
2023/07/08 02:30:47;;;;;;;8.88;6.65;;;;;;;;;;5083114;28;23280;-65
2023/07/08 02:33:17;;;;;;;8.68;6.70;;;;;;;;;;5104654;28;20193;-65
2023/07/08 02:35:45;;;;;;;9.05;6.75;;;;;;;;;;5093029;28;20216;-65
2023/07/08 02:38:13;;;;;;;10.10;6.30;;;;;;;;;;5069799;28;20697;-65
2023/07/08 02:40:40;;;;;;;10.32;5.93;;;;;;;;;;5075944;28;21812;-65
2023/07/08 02:43:07;;;;;;;8.40;6.40;;;;;;;;;;5080305;28;20208;-65
2023/07/08 02:45:35;;;;;;;8.57;6.70;;;;;;;;;;5073275;28;20212;-64
2023/07/08 02:48:02;;;;;;;8.10;6.25;;;;;;;;;;5058905;28;20228;-66
2023/07/08 02:50:29;;;;;;;8.88;6.72;;;;;;;;;;5069999;28;20208;-65
2023/07/08 02:52:58;;;;;;;9.80;6.72;;;;;;;;;;5070786;28;20853;-65
2023/07/08 02:55:25;;;;;;;9.05;6.28;;;;;;;;;;5060193;28;20349;-64
2023/07/08 02:57:52;;;;;;;8.60;6.60;;;;;;;;;;5078407;28;20299;-65
2023/07/08 03:00:20;;;;;;;11.73;7.47;;;;;;;;;;5080167;28;20203;-64
2023/07/08 03:02:47;;;;;;;20.00;12.13;;;;;;;;;;5082493;28;20206;-65
2023/07/08 03:05:15;;;;;;;26.33;14.60;;;;;;;;;;5082080;28;20227;-65
2023/07/08 03:07:42;;;;;;;14.35;8.65;;;;;;;;;;5080912;28;20269;-64
2023/07/08 03:10:09;;;;;;;14.85;9.98;;;;;;;;;;5077739;28;20677;-65
2023/07/08 03:12:36;;;;;;;11.13;8.13;;;;;;;;;;5084500;28;20221;-65
2023/07/08 03:15:05;;;;;;;9.25;6.70;;;;;;;;;;5082211;28;20708;-64
2023/07/08 03:17:32;;;;;;;9.13;6.43;;;;;;;;;;5086299;28;20292;-64
2023/07/08 03:20:00;;;;;;;8.50;6.47;;;;;;;;;;5073274;28;20683;-64
2023/07/08 03:22:27;;;;;;;9.00;6.22;;;;;;;;;;5072650;28;20228;-65
2023/07/08 03:24:55;;;;;;;9.02;6.45;;;;;;;;;;5077212;28;20246;-64
2023/07/08 03:27:23;;;;;;;9.18;6.32;;;;;;;;;;5076121;28;20209;-63
2023/07/08 03:29:50;;;;;;;8.30;6.28;;;;;;;;;;5072762;28;20205;-64
2023/07/08 03:32:17;;;;;;;7.80;6.55;;;;;;;;;;5074222;28;20580;-65
2023/07/08 03:34:45;;;;;;;8.43;6.22;;;;;;;;;;5058219;28;20278;-65
2023/07/08 03:37:12;;;;;;;9.95;6.13;;;;;;;;;;5073355;28;20622;-64
2023/07/08 03:39:40;;;;;;;8.77;6.40;;;;;;;;;;5071877;28;20260;-64
2023/07/08 03:42:10;;;;;;;8.88;6.60;;;;;;;;;;5076423;28;20616;-64
2023/07/08 03:44:37;;;;;;;9.35;6.75;;;;;;;;;;5064579;28;20574;-62
2023/07/08 03:47:04;;;;;;;7.93;6.50;;;;;;;;;;5065032;28;20255;-65
2023/07/08 03:49:32;;;;;;;8.98;7.30;;;;;;;;;;5054049;28;20201;-64
2023/07/08 03:51:59;;;;;;;7.43;6.13;;;;;;;;;;5067595;28;20208;-63
2023/07/08 03:54:26;;;;;;;10.25;7.22;;;;;;;;;;5073758;28;20209;-64
2023/07/08 03:56:54;;;;;;;11.10;7.50;;;;;;;;;;5077937;28;20228;-66
2023/07/08 03:59:21;;;;;;;8.52;6.05;;;;;;;;;;5079209;28;20698;-69
2023/07/08 04:01:49;;;;;;;7.80;6.57;;;;;;;;;;5074184;28;20200;-65
2023/07/08 04:04:16;;;;;;;7.85;6.70;;;;;;;;;;5068550;28;20744;-66
2023/07/08 04:06:45;;;;;;;8.30;6.50;;;;;;;;;;5072086;28;20205;-63
2023/07/08 04:09:12;;;;;;;8.68;6.20;;;;;;;;;;5068353;28;20353;-66
2023/07/08 04:11:40;;;;;;;9.13;6.55;;;;;;;;;;5077499;28;20197;-66
2023/07/08 04:14:09;;;;;;;10.32;7.10;;;;;;;;;;5073090;28;20204;-63
2023/07/08 04:16:45;;;;;;;8.65;6.75;;;;;;;;;;5072480;28;20205;-69
2023/07/08 04:19:14;;;;;;;7.18;6.47;;;;;;;;;;5076413;28;20231;-69
2023/07/08 04:21:42;;;;;;;9.18;6.20;;;;;;;;;;5078721;28;20212;-64
2023/07/08 04:24:11;;;;;;;8.95;6.60;;;;;;;;;;5082448;28;20204;-67
2023/07/08 04:26:39;;;;;;;8.32;6.50;;;;;;;;;;5079866;28;20216;-64
2023/07/08 04:29:17;;;;;;;8.50;6.68;;;;;;;;;;5078170;28;20221;-69
2023/07/08 04:31:45;;;;;;;9.35;6.90;;;;;;;;;;5080258;28;20268;-65
2023/07/08 04:34:12;;;;;;;7.70;6.50;;;;;;;;;;5086001;28;20208;-66
2023/07/08 04:36:39;;;;;;;11.32;6.75;;;;;;;;;;5080586;28;20227;-64
2023/07/08 04:39:08;;;;;;;9.38;7.10;;;;;;;;;;5075457;28;20251;-62
2023/07/08 04:41:40;;;;;;;8.27;6.50;;;;;;;;;;5072914;28;20201;-63
2023/07/08 04:44:10;;;;;;;10.48;6.72;;;;;;;;;;5076484;28;20224;-67
2023/07/08 04:46:43;;;;;;;9.15;6.95;;;;;;;;;;5069964;28;20201;-64
2023/07/08 04:49:11;;;;;;;8.23;6.75;;;;;;;;;;5083436;28;20205;-67
2023/07/08 04:51:39;;;;;;;8.68;6.85;;;;;;;;;;5083442;28;20386;-64
2023/07/08 04:54:06;;;;;;;8.68;6.43;;;;;;;;;;5069973;28;20200;-65
2023/07/08 04:56:37;;;;;;;10.13;6.78;;;;;;;;;;5086032;28;20225;-63
2023/07/08 04:59:05;;;;;;;8.82;7.45;;;;;;;;;;5073335;28;20284;-65
2023/07/08 05:01:32;;;;;;;8.40;6.95;;;;;;;;;;5080424;28;20201;-66
2023/07/08 05:04:00;;;;;;;10.32;6.88;;;;;;;;;;5080367;28;20197;-66
2023/07/08 05:06:27;;;;;;;11.38;6.60;;;;;;;;;;5083734;28;20217;-64
2023/07/08 05:08:55;;;;;;;8.73;6.75;;;;;;;;;;5079165;28;20197;-64
2023/07/08 05:11:22;;;;;;;7.80;6.70;;;;;;;;;;5087343;28;20212;-63
2023/07/08 05:13:50;;;;;;;8.85;7.15;;;;;;;;;;5080361;28;20205;-64
2023/07/08 05:16:17;;;;;;;10.30;6.90;;;;;;;;;;5085167;28;20221;-64
2023/07/08 05:18:45;;;;;;;8.48;6.55;;;;;;;;;;5090533;28;20225;-64
2023/07/08 05:21:12;;;;;;;11.23;6.80;;;;;;;;;;5084118;28;20209;-66
2023/07/08 05:23:40;;;;;;;9.40;6.70;;;;;;;;;;5084918;28;20193;-66
2023/07/08 05:26:08;;;;;;;10.35;6.15;;;;;;;;;;5084142;28;20294;-65
2023/07/08 05:28:35;;;;;;;9.45;6.10;;;;;;;;;;5079228;28;20250;-65
2023/07/08 05:31:02;;;;;;;8.57;6.90;;;;;;;;;;5079680;28;20197;-64
2023/07/08 05:33:31;;;;;;;7.63;6.15;;;;;;;;;;5077626;28;20205;-68
2023/07/08 05:35:59;;;;;;;12.23;6.55;;;;;;;;;;5085304;28;20656;-65
2023/07/08 05:38:26;;;;;;;8.95;6.75;;;;;;;;;;5084827;28;20224;-64
2023/07/08 05:40:55;;;;;;;8.52;6.60;;;;;;;;;;5084506;28;20197;-66
2023/07/08 05:43:22;;;;;;;8.50;6.15;;;;;;;;;;5076947;28;20209;-64
2023/07/08 05:45:50;;;;;;;8.25;6.00;;;;;;;;;;5081013;28;20282;-65
2023/07/08 05:48:36;;;;;;;8.82;5.90;;;;;;;;;;5084558;28;20212;-65
2023/07/08 05:51:04;;;;;;;6.80;5.25;;;;;;;;;;5084304;28;20209;-64
2023/07/08 05:53:31;;;;;;;8.20;4.95;;;;;;;;;;5082475;28;20662;-67
2023/07/08 05:55:59;;;;;;;6.75;5.00;;;;;;;;;;5071188;28;20729;-66
2023/07/08 05:58:26;;;;;;;6.20;4.63;;;;;;;;;;5082137;28;20317;-67
2023/07/08 06:00:57;;;;;;;8.23;5.32;;;;;;;;;;5086135;28;20287;-66
2023/07/08 06:03:26;;;;;;;6.28;4.43;;;;;;;;;;5089791;28;20288;-67
2023/07/08 06:05:53;;;;;;;9.05;4.70;;;;;;;;;;5083939;28;20223;-67
2023/07/08 06:08:20;;;;;;;9.60;4.93;;;;;;;;;;5083455;28;20209;-67
2023/07/08 06:10:48;;;;;;;6.90;4.68;;;;;;;;;;5085180;28;20205;-65
2023/07/08 06:13:16;;;;;;;7.60;4.63;;;;;;;;;;5091050;28;20224;-62
2023/07/08 06:15:43;;;;;;;5.75;4.53;;;;;;;;;;5092094;28;20225;-63
2023/07/08 06:18:10;;;;;;;6.78;4.53;;;;;;;;;;5076326;28;20227;-66
2023/07/08 06:20:38;;;;;;;4.85;3.97;;;;;;;;;;5083037;28;20201;-68
2023/07/08 06:23:05;;;;;;;9.48;4.68;;;;;;;;;;5069575;28;20765;-66
2023/07/08 06:25:33;;;;;;;7.00;5.00;;;;;;;;;;5086662;28;20217;-66
2023/07/08 06:28:00;;;;;;;9.05;4.82;;;;;;;;;;5096899;28;20278;-66
2023/07/08 06:30:27;;;;;;;5.70;5.10;;;;;;;;;;5087619;28;20260;-66
2023/07/08 06:32:55;;;;;;;7.20;5.60;;;;;;;;;;5086896;28;20209;-66
2023/07/08 06:35:24;;;;;;;6.95;5.32;;;;;;;;;;5088569;28;20640;-65
2023/07/08 06:37:51;;;;;;;8.35;4.80;;;;;;;;;;5082396;28;20208;-67
2023/07/08 06:40:19;;;;;;;6.82;4.47;;;;;;;;;;5083859;28;20607;-62
2023/07/08 06:42:47;;;;;;;5.55;4.30;;;;;;;;;;5081268;28;20204;-67
2023/07/08 06:45:14;;;;;;;8.82;4.63;;;;;;;;;;5086525;28;20231;-67
2023/07/08 06:47:42;;;;;;;6.80;4.50;;;;;;;;;;5074747;28;20194;-66
2023/07/08 06:50:09;;;;;;;8.38;4.50;;;;;;;;;;5076484;28;20201;-64
2023/07/08 06:52:37;;;;;;;7.22;4.53;;;;;;;;;;5070767;28;20216;-66
2023/07/08 06:55:08;;;;;;;8.70;5.72;;;;;;;;;;5071025;28;20229;-67
2023/07/08 06:57:37;;;;;;;8.50;4.13;;;;;;;;;;5060180;28;20201;-63
2023/07/08 07:00:07;;;;;;;5.00;4.40;;;;;;;;;;5072585;28;20280;-65
2023/07/08 07:02:37;;;;;;;8.30;5.07;;;;;;;;;;5065269;28;20220;-66
2023/07/08 07:05:04;;;;;;;6.60;4.45;;;;;;;;;;5079320;28;20278;-64
2023/07/08 07:07:32;;;;;;;6.18;4.43;;;;;;;;;;5078193;28;20196;-67
2023/07/08 07:09:59;;;;;;;6.68;4.57;;;;;;;;;;5083887;28;20400;-66
2023/07/08 07:12:27;;;;;;;6.30;4.47;;;;;;;;;;5091119;28;20215;-66
2023/07/08 07:14:54;;;;;;;8.07;4.30;;;;;;;;;;5083636;28;20281;-66
2023/07/08 07:17:23;;;;;;;6.45;4.45;;;;;;;;;;5110828;28;20201;-66
2023/07/08 07:19:50;;;;;;;5.75;4.32;;;;;;;;;;5087104;28;20225;-66
2023/07/08 07:22:17;;;;;;;8.10;4.85;;;;;;;;;;5077675;28;20197;-66
2023/07/08 07:24:45;;;;;;;8.60;4.80;;;;;;;;;;5067928;28;20270;-66
2023/07/08 07:27:12;;;;;;;4.97;4.47;;;;;;;;;;5080661;28;20587;-66
2023/07/08 07:29:49;;;;;;;11.52;4.55;;;;;;;;;;5085372;28;20613;-65
2023/07/08 07:32:18;;;;;;;7.13;4.82;;;;;;;;;;5086231;28;20204;-64
2023/07/08 07:34:49;;;;;;;5.82;4.85;;;;;;;;;;5076820;28;20701;-64
2023/07/08 07:37:17;;;;;;;8.55;4.50;;;;;;;;;;5086205;28;20201;-64
2023/07/08 07:39:45;;;;;;;7.40;4.90;;;;;;;;;;5085767;28;20221;-63
2023/07/08 07:42:12;;;;;;;6.57;4.80;;;;;;;;;;5084944;28;20265;-65
2023/07/08 07:44:43;;;;;;;5.68;4.63;;;;;;;;;;5083959;28;20212;-64
2023/07/08 07:47:10;;;;;;;7.30;5.03;;;;;;;;;;5086060;28;20205;-64
2023/07/08 07:49:38;;;;;;;8.32;5.13;;;;;;;;;;5088564;28;20209;-67
2023/07/08 07:52:05;;;;;;;9.13;4.88;;;;;;;;;;5081196;28;20204;-66
2023/07/08 07:54:32;;;;;;;6.45;4.20;;;;;;;;;;5087662;28;20229;-66
2023/07/08 07:57:00;;;;;;;7.10;4.55;;;;;;;;;;5090468;28;20227;-66
2023/07/08 07:59:27;;;;;;;7.15;4.47;;;;;;;;;;5080902;28;20697;-65
2023/07/08 08:01:55;;;;;;;4.93;4.43;;;;;;;;;;5083908;28;20205;-65
2023/07/08 08:04:22;;;;;;;11.20;4.85;;;;;;;;;;5089726;28;20212;-66
2023/07/08 08:06:49;;;;;;;7.13;4.30;;;;;;;;;;5083154;28;20201;-66
2023/07/08 08:09:17;;;;;;;6.45;4.20;;;;;;;;;;5080415;28;20208;-62
2023/07/08 08:11:44;;;;;;;5.32;3.35;;;;;;;;;;5079619;28;20615;-65
2023/07/08 08:14:11;;;;;;;5.90;3.47;;;;;;;;;;5084874;28;20266;-64
2023/07/08 08:16:39;;;;;;;4.82;3.38;;;;;;;;;;5085692;28;20228;-65
2023/07/08 08:19:06;;;;;;;2.92;2.63;;;;;;;;;;5079170;28;20308;-65
2023/07/08 08:21:35;;;;;;;2.80;2.35;;;;;;;;;;5086570;28;20200;-64
2023/07/08 08:24:02;;;;;;;4.57;2.67;;;;;;;;;;5076134;28;20193;-66
2023/07/08 08:26:30;;;;;;;3.00;2.70;;;;;;;;;;5085825;28;20220;-65
2023/07/08 08:28:57;;;;;;;3.97;2.50;;;;;;;;;;5085277;28;20257;-65
2023/07/08 08:31:24;;;;;;;3.40;2.70;;;;;;;;;;5081171;28;20201;-66
2023/07/08 08:33:52;;;;;;;4.55;2.95;;;;;;;;;;5080964;28;20685;-66
2023/07/08 08:36:20;;;;;;;3.90;2.85;;;;;;;;;;5070349;28;20220;-62
2023/07/08 08:38:48;;;;;;;3.05;2.63;;;;;;;;;;5093421;28;20230;-61
2023/07/08 08:41:19;;;;;;;5.43;2.72;;;;;;;;;;5079542;28;20198;-63
2023/07/08 08:43:48;;;;;;;4.20;2.90;;;;;;;;;;5091442;28;20201;-66
2023/07/08 08:46:27;;;;;;;3.20;2.80;;;;;;;;;;5079724;28;20758;-63
2023/07/08 08:48:55;;;;;;;6.05;3.25;;;;;;;;;;5073766;28;20196;-62
2023/07/08 08:51:23;;;;;;;5.80;2.90;;;;;;;;;;5069728;28;20371;-65
2023/07/08 08:53:53;;;;;;;5.90;3.00;;;;;;;;;;5077495;28;20283;-65
2023/07/08 08:56:23;;;;;;;3.80;2.90;;;;;;;;;;5078310;28;20217;-66
2023/07/08 08:58:59;;;;;;;4.55;3.05;;;;;;;;;;5077441;28;20217;-65
2023/07/08 09:01:26;;;;;;;9.45;3.22;;;;;;;;;;5078477;28;20229;-63
2023/07/08 09:04:01;;;;;;;8.55;3.50;;;;;;;;;;5072142;28;20246;-65
2023/07/08 09:06:29;;;;;;;14.50;3.83;;;;;;;;;;5066565;28;20221;-64
2023/07/08 09:08:58;;;;;;;5.10;3.60;;;;;;;;;;5065426;28;20229;-65
2023/07/08 09:11:41;;;;;;;5.63;3.65;;;;;;;;;;5069038;28;20213;-64
2023/07/08 09:14:14;;;;;;;5.70;3.42;;;;;;;;;;5063814;28;21682;-63
2023/07/08 09:16:47;;;;;;;6.47;3.50;;;;;;;;;;5070503;28;20189;-62
2023/07/08 09:19:18;;;;;;;3.80;3.08;;;;;;;;;;5073717;28;20250;-62
2023/07/08 09:21:49;;;;;;;4.68;3.50;;;;;;;;;;5079375;28;20271;-65
2023/07/08 09:24:23;;;;;;;6.68;3.40;;;;;;;;;;5064519;28;20213;-62
2023/07/08 09:26:52;;;;;;;6.05;3.50;;;;;;;;;;5071628;28;20291;-65
2023/07/08 09:29:22;;;;;;;5.55;3.35;;;;;;;;;;5062907;28;20205;-66
2023/07/08 09:31:49;;;;;;;6.45;3.63;;;;;;;;;;5073753;28;20212;-65
2023/07/08 09:34:18;;;;;;;3.97;3.30;;;;;;;;;;5070052;28;20208;-66
2023/07/08 09:36:47;;;;;;;4.53;3.05;;;;;;;;;;5065454;28;20231;-62
2023/07/08 09:39:15;;;;;;;4.68;3.55;;;;;;;;;;5071037;28;20205;-67
2023/07/08 09:41:44;;;;;;;5.88;3.30;;;;;;;;;;5077023;28;20204;-61
2023/07/08 09:44:29;;;;;;;4.80;3.00;;;;;;;;;;5069081;28;20304;-65
2023/07/08 09:46:58;;;;;;;4.95;2.97;;;;;;;;;;5060616;28;20240;-63
2023/07/08 09:49:32;;;;;;;3.60;3.08;;;;;;;;;;5064988;28;21028;-65
2023/07/08 09:51:59;;;;;;;3.70;2.55;;;;;;;;;;5066861;28;20213;-65
2023/07/08 09:54:27;;;;;;;4.03;3.03;;;;;;;;;;5079107;28;20341;-65
2023/07/08 09:56:59;;;;;;;3.97;2.80;;;;;;;;;;5075425;28;20197;-64
2023/07/08 09:59:32;;;;;;;4.05;3.30;;;;;;;;;;5076423;28;20574;-66
2023/07/08 10:02:20;;;;;;;5.82;2.83;;;;;;;;;;5075512;28;20210;-65
2023/07/08 10:04:52;;;;;;;3.47;2.83;;;;;;;;;;5057575;28;20320;-66
2023/07/08 10:07:19;;;;;;;4.72;3.13;;;;;;;;;;5058647;28;20240;-66
2023/07/08 10:09:50;;;;;;;5.90;2.78;;;;;;;;;;5070908;28;20208;-66
2023/07/08 10:12:18;;;;;;;7.40;3.10;;;;;;;;;;5076906;28;20228;-66
2023/07/08 10:14:50;;;;;;;3.20;2.60;;;;;;;;;;5079273;28;20217;-66
2023/07/08 10:17:19;;;;;;;3.38;2.92;;;;;;;;;;5080443;28;20206;-66
2023/07/08 10:19:47;;;;;;;3.05;2.75;;;;;;;;;;5081220;28;20765;-66
2023/07/08 10:22:24;;;;;;;4.63;3.03;;;;;;;;;;5081222;28;20205;-66
2023/07/08 10:24:59;;;;;;;4.07;2.70;;;;;;;;;;5078842;28;20832;-65
2023/07/08 10:27:38;;;;;;;3.47;2.42;;;;;;;;;;5082210;28;20216;-66
2023/07/08 10:30:15;;;;;;;3.38;2.67;;;;;;;;;;5078921;28;20202;-63
2023/07/08 10:32:53;;;;;;;3.00;2.70;;;;;;;;;;5077933;28;20216;-65
2023/07/08 10:35:37;;;;;;;4.60;2.60;;;;;;;;;;5064311;28;20225;-63
2023/07/08 10:38:24;;;;;;;3.70;2.75;;;;;;;;;;5075224;28;20825;-69
2023/07/08 10:40:59;;;;;;;5.13;2.40;;;;;;;;;;5078891;28;20213;-66
2023/07/08 10:43:32;;;;;;;2.42;2.13;;;;;;;;;;5073149;28;20239;-69
2023/07/08 10:46:15;;;;;;;3.05;2.25;;;;;;;;;;5074837;28;20531;-67
2023/07/08 10:49:01;;;;;;;2.30;2.10;;;;;;;;;;5071747;28;21205;-64
2023/07/08 10:51:46;;;;;;;4.20;2.35;;;;;;;;;;5076845;28;20205;-65
2023/07/08 10:54:14;;;;;;;3.63;2.25;;;;;;;;;;5078415;28;20297;-64
2023/07/08 10:56:43;;;;;;;4.75;2.15;;;;;;;;;;5068214;28;20213;-65
2023/07/08 10:59:14;;;;;;;4.00;1.98;;;;;;;;;;5071552;28;20205;-71
2023/07/08 11:01:41;;;;;;;3.42;2.55;;;;;;;;;;5070698;28;20642;-69
2023/07/08 11:04:21;;;;;;;7.00;2.30;;;;;;;;;;5076685;28;20631;-66
2023/07/08 11:06:52;;;;;;;3.03;2.20;;;;;;;;;;5075267;28;20201;-69
2023/07/08 11:09:24;;;;;;;2.30;2.10;;;;;;;;;;5079267;28;20205;-67
2023/07/08 11:11:55;;;;;;;3.50;2.00;;;;;;;;;;5073537;28;20636;-66
2023/07/08 11:14:33;;;;;;;2.58;2.20;;;;;;;;;;5073470;28;20307;-65
2023/07/08 11:17:07;;;;;;;2.72;2.25;;;;;;;;;;5081766;28;20794;-65
2023/07/08 11:19:42;;;;;;;2.50;2.30;;;;;;;;;;5076555;28;20201;-66
2023/07/08 11:22:12;;;;;;;2.33;2.13;;;;;;;;;;5071106;28;20219;-70
2023/07/08 11:24:39;;;;;;;4.53;2.58;;;;;;;;;;5090834;28;20216;-68
2023/07/08 11:27:15;;;;;;;4.88;2.40;;;;;;;;;;5077034;27;20592;-65
2023/07/08 11:29:46;;;;;;;3.42;2.20;;;;;;;;;;5050420;28;20201;-65
2023/07/08 11:32:16;;;;;;;3.88;2.25;;;;;;;;;;5052653;28;20205;-65
2023/07/08 11:34:45;;;;;;;3.45;2.08;;;;;;;;;;5052292;28;20222;-65
2023/07/08 11:37:13;;;;;;;5.00;2.30;;;;;;;;;;5046016;28;20206;-69
2023/07/08 11:39:45;;;;;;;2.88;2.22;;;;;;;;;;5055397;28;20672;-67
2023/07/08 11:42:20;;;;;;;4.03;2.38;;;;;;;;;;5054352;28;20598;-65
2023/07/08 11:44:52;;;;;;;3.45;2.33;;;;;;;;;;5051625;28;20255;-68
2023/07/08 11:47:24;;;;;;;3.70;2.10;;;;;;;;;;5049310;28;20311;-69
2023/07/08 11:49:53;;;;;;;3.78;2.50;;;;;;;;;;5046575;28;20206;-65
2023/07/08 11:52:21;;;;;;;2.63;2.30;;;;;;;;;;5039407;28;20201;-68
2023/07/08 11:54:50;;;;;;;4.78;2.35;;;;;;;;;;5036021;28;20218;-64
2023/07/08 11:57:19;;;;;;;3.60;2.20;;;;;;;;;;5035085;28;20210;-66
2023/07/08 11:59:48;;;;;;;2.05;1.90;;;;;;;;;;5037561;28;20678;-65
2023/07/08 12:02:17;;;;;;;3.28;1.90;;;;;;;;;;5038086;28;20221;-65
2023/07/08 12:04:57;;;;;;;3.13;1.70;;;;;;;;;;5048593;28;20233;-66
2023/07/08 12:07:37;;;;;;;3.22;1.70;;;;;;;;;;5038277;28;20288;-65
2023/07/08 12:10:13;;;;;;;2.95;1.67;;;;;;;;;;5048009;28;20905;-65
2023/07/08 12:12:42;;;;;;;1.60;1.45;;;;;;;;;;5037011;28;20198;-66
2023/07/08 12:15:28;;;;;;;3.58;1.60;;;;;;;;;;5033754;28;20225;-67
2023/07/08 12:18:13;;;;;;;1.95;1.70;;;;;;;;;;5038473;28;20211;-66
2023/07/08 12:20:41;;;;;;;2.38;1.60;;;;;;;;;;5034956;28;20233;-66
2023/07/08 12:23:13;;;;;;;6.63;1.90;;;;;;;;;;5039652;28;20233;-65
2023/07/08 12:25:40;;;;;;;2.72;1.90;;;;;;;;;;5046748;28;20226;-66
2023/07/08 12:28:09;;;;;;;3.40;2.03;;;;;;;;;;5044846;28;20225;-66
2023/07/08 12:30:37;;;;;;;3.33;1.80;;;;;;;;;;5045814;28;20207;-65
2023/07/08 12:33:09;;;;;;;4.35;1.80;;;;;;;;;;5042986;28;20328;-66
2023/07/08 12:35:36;;;;;;;5.32;2.10;;;;;;;;;;5038866;28;20303;-63
2023/07/08 12:38:10;;;;;;;3.65;1.80;;;;;;;;;;5027701;28;20267;-67
2023/07/08 12:40:37;;;;;;;2.50;1.65;;;;;;;;;;5026234;28;20199;-65
2023/07/08 12:43:09;;;;;;;3.17;1.80;;;;;;;;;;5018887;28;20340;-66
2023/07/08 12:45:36;;;;;;;6.78;2.28;;;;;;;;;;5025353;28;20234;-66
2023/07/08 12:48:04;;;;;;;3.90;1.98;;;;;;;;;;5025908;28;20210;-64
2023/07/08 12:50:31;;;;;;;2.28;1.90;;;;;;;;;;5040207;28;20264;-64
2023/07/08 12:53:03;;;;;;;2.45;1.90;;;;;;;;;;5028655;28;20232;-65
2023/07/08 12:55:32;;;;;;;2.08;1.80;;;;;;;;;;5023212;28;20719;-65
2023/07/08 12:58:00;;;;;;;1.85;1.75;;;;;;;;;;5031271;28;20220;-66
2023/07/08 13:00:30;;;;;;;5.05;2.10;;;;;;;;;;5023745;28;20223;-65
2023/07/08 13:03:03;;;;;;;4.80;2.15;;;;;;;;;;5029192;28;20206;-66
2023/07/08 13:05:31;;;;;;;3.40;1.70;;;;;;;;;;5026005;28;20234;-66
2023/07/08 13:07:58;;;;;;;2.38;1.88;;;;;;;;;;5020424;28;20263;-66
2023/07/08 13:10:29;;;;;;;2.53;1.90;;;;;;;;;;5032562;28;20207;-67
2023/07/08 13:12:58;;;;;;;2.95;2.00;;;;;;;;;;5019263;28;20202;-65
2023/07/08 13:15:30;;;;;;;1.77;1.67;;;;;;;;;;5031442;28;20272;-65
2023/07/08 13:17:58;;;;;;;2.47;1.95;;;;;;;;;;5029584;28;21460;-64
2023/07/08 13:20:26;;;;;;;4.38;1.95;;;;;;;;;;5022836;28;20253;-67
2023/07/08 13:23:00;;;;;;;2.83;1.80;;;;;;;;;;5019354;28;20211;-65
2023/07/08 13:25:31;;;;;;;4.60;2.13;;;;;;;;;;5019866;28;20259;-65
2023/07/08 13:28:03;;;;;;;6.97;2.08;;;;;;;;;;5035755;28;20614;-64
2023/07/08 13:30:31;;;;;;;2.63;1.92;;;;;;;;;;5029131;28;20206;-64
2023/07/08 13:33:00;;;;;;;2.00;1.83;;;;;;;;;;5032172;28;20551;-64
2023/07/08 13:35:35;;;;;;;2.30;1.80;;;;;;;;;;5021128;28;20233;-64
2023/07/08 13:38:03;;;;;;;2.97;2.10;;;;;;;;;;5028311;28;20209;-66
2023/07/08 13:40:31;;;;;;;3.15;2.20;;;;;;;;;;5034128;28;20210;-65
2023/07/08 13:42:58;;;;;;;5.20;2.10;;;;;;;;;;5058407;28;20202;-63
2023/07/08 13:45:29;;;;;;;3.50;2.20;;;;;;;;;;5036313;28;20222;-64
2023/07/08 13:48:13;;;;;;;2.80;2.10;;;;;;;;;;5033995;28;20310;-65
2023/07/08 13:50:45;;;;;;;2.97;2.30;;;;;;;;;;5026149;28;20945;-66
2023/07/08 13:53:17;;;;;;;4.50;2.40;;;;;;;;;;5024703;28;20206;-62
2023/07/08 13:55:44;;;;;;;2.08;1.88;;;;;;;;;;5032029;28;20269;-62
2023/07/08 13:58:15;;;;;;;3.17;2.20;;;;;;;;;;5029746;28;20213;-64
2023/07/08 14:00:43;;;;;;;5.63;2.40;;;;;;;;;;5024080;28;20234;-62
2023/07/08 14:03:11;;;;;;;2.13;2.00;;;;;;;;;;5028672;28;20668;-64
2023/07/08 14:05:39;;;;;;;3.67;2.63;;;;;;;;;;5031602;28;20223;-63
2023/07/08 14:08:13;;;;;;;3.45;2.60;;;;;;;;;;5035229;28;20545;-65
2023/07/08 14:10:41;;;;;;;2.45;2.20;;;;;;;;;;5031092;28;20271;-63
2023/07/08 14:13:08;;;;;;;5.78;2.33;;;;;;;;;;5023235;28;20209;-63
2023/07/08 14:15:36;;;;;;;3.00;2.30;;;;;;;;;;5026281;28;20483;-66
2023/07/08 14:18:03;;;;;;;4.93;2.38;;;;;;;;;;5010288;28;20943;-62
2023/07/08 14:20:31;;;;;;;2.45;2.22;;;;;;;;;;5005731;28;21289;-61
2023/07/08 14:22:58;;;;;;;3.47;2.40;;;;;;;;;;5006951;28;20209;-63
2023/07/08 14:25:26;;;;;;;3.72;2.33;;;;;;;;;;5018526;28;20287;-61
2023/07/08 14:27:53;;;;;;;2.42;2.15;;;;;;;;;;5017783;28;20288;-65
2023/07/08 14:30:22;;;;;;;2.10;1.90;;;;;;;;;;5014861;28;20320;-65
2023/07/08 14:32:49;;;;;;;3.78;2.30;;;;;;;;;;5028092;28;20292;-63
2023/07/08 14:35:19;;;;;;;4.15;2.30;;;;;;;;;;5024189;28;20234;-63
2023/07/08 14:37:47;;;;;;;2.40;2.20;;;;;;;;;;5043408;28;20213;-62
2023/07/08 14:40:24;;;;;;;4.25;2.65;;;;;;;;;;5040048;28;20210;-65
2023/07/08 14:42:58;;;;;;;3.05;2.38;;;;;;;;;;5035857;28;20707;-66
2023/07/08 14:45:26;;;;;;;5.45;2.97;;;;;;;;;;5040734;28;21385;-64
2023/07/08 14:47:53;;;;;;;3.75;2.22;;;;;;;;;;5041345;28;20219;-65
2023/07/08 14:50:20;;;;;;;7.68;2.10;;;;;;;;;;5036528;28;20198;-65
2023/07/08 14:52:48;;;;;;;3.75;2.17;;;;;;;;;;5034863;28;20198;-66
2023/07/08 14:55:15;;;;;;;2.38;2.17;;;;;;;;;;5022126;28;20221;-64
2023/07/08 14:57:47;;;;;;;2.20;1.92;;;;;;;;;;5019415;28;20206;-67